createdAt,value
2022-07-25T00:00:40.538Z,68.48
2022-07-25T00:01:41.180Z,70.74
2022-07-25T00:02:40.849Z,47.05
2022-07-25T00:03:41.006Z,46.25
2022-07-25T00:04:41.273Z,50.43
2022-07-25T00:05:41.437Z,48.34
2022-07-25T00:06:41.621Z,48.50
2022-07-25T00:07:41.795Z,47.53
2022-07-25T00:08:41.966Z,46.08
2022-07-25T00:09:43.106Z,46.41
2022-07-25T00:10:43.299Z,68.32
2022-07-25T00:11:42.456Z,59.30
2022-07-25T00:12:42.601Z,74.12
2022-07-25T00:13:42.771Z,57.36
2022-07-25T00:14:42.960Z,73.48
2022-07-25T00:15:43.703Z,45.92
2022-07-25T00:16:43.266Z,49.79
2022-07-25T00:17:43.470Z,49.15
2022-07-25T00:18:43.626Z,71.70
2022-07-25T00:19:44.617Z,47.70
2022-07-25T00:20:43.977Z,69.29
2022-07-25T00:21:44.154Z,47.21
2022-07-25T00:22:44.632Z,48.18
2022-07-25T00:23:44.496Z,46.89
2022-07-25T00:24:44.623Z,47.37
2022-07-25T00:25:44.747Z,47.53
2022-07-25T00:26:44.892Z,74.93
2022-07-25T00:27:45.043Z,47.53
2022-07-25T00:28:45.212Z,47.86
2022-07-25T00:29:46.126Z,47.37
2022-07-25T00:30:45.566Z,46.25
2022-07-25T00:31:45.682Z,46.73
2022-07-25T00:32:45.883Z,51.24
2022-07-25T00:33:46.052Z,47.86
2022-07-25T00:34:46.178Z,70.09
2022-07-25T00:35:47.157Z,47.86
2022-07-25T00:36:46.536Z,49.15
2022-07-25T00:37:47.645Z,52.21
2022-07-25T00:38:46.902Z,48.02
2022-07-25T00:39:47.055Z,47.37
2022-07-25T00:40:47.212Z,49.47
2022-07-25T00:41:48.453Z,48.66
2022-07-25T00:42:47.659Z,66.87
2022-07-25T00:43:47.822Z,51.72
2022-07-25T00:44:48.638Z,47.86
2022-07-25T00:45:48.628Z,48.02
2022-07-25T00:46:48.350Z,53.17
2022-07-25T00:47:49.141Z,63.33
2022-07-25T00:48:48.724Z,54.79
2022-07-25T00:49:49.628Z,72.67
2022-07-25T00:50:49.038Z,56.07
2022-07-25T00:51:49.173Z,54.46
2022-07-25T00:52:49.301Z,69.93
2022-07-25T00:53:49.555Z,51.40
2022-07-25T00:54:49.693Z,51.88
2022-07-25T00:55:49.822Z,52.69
2022-07-25T00:56:50.070Z,49.15
2022-07-25T00:57:51.131Z,51.08
2022-07-25T00:58:50.353Z,51.24
2022-07-25T00:59:50.507Z,70.90
2022-07-25T01:00:50.611Z,57.04
2022-07-25T01:01:50.802Z,52.37
2022-07-25T01:02:51.741Z,52.37
2022-07-25T01:03:51.005Z,65.74
2022-07-25T01:04:51.651Z,54.79
2022-07-25T01:05:53.661Z,48.02
2022-07-25T01:06:52.496Z,58.81
2022-07-25T01:07:52.634Z,55.43
2022-07-25T01:08:51.884Z,59.46
2022-07-25T01:09:52.060Z,54.46
2022-07-25T01:10:52.218Z,50.43
2022-07-25T01:11:53.142Z,54.95
2022-07-25T01:12:52.499Z,57.04
2022-07-25T01:13:52.640Z,73.80
2022-07-25T01:14:52.809Z,57.85
2022-07-25T01:15:53.693Z,57.04
2022-07-25T01:16:53.119Z,69.45
2022-07-25T01:17:53.663Z,58.01
2022-07-25T01:18:54.144Z,52.05
2022-07-25T01:19:53.661Z,56.88
2022-07-25T01:20:54.670Z,72.83
2022-07-25T01:21:54.539Z,71.22
2022-07-25T01:22:54.198Z,72.35
2022-07-25T01:23:54.368Z,56.72
2022-07-25T01:24:54.519Z,51.72
2022-07-25T01:25:55.644Z,56.40
2022-07-25T01:26:55.649Z,55.43
2022-07-25T01:27:56.158Z,57.20
2022-07-25T01:28:56.161Z,65.90
2022-07-25T01:29:55.290Z,54.30
2022-07-25T01:30:55.557Z,54.14
2022-07-25T01:31:56.668Z,55.75
2022-07-25T01:32:56.147Z,57.52
2022-07-25T01:33:57.041Z,74.60
2022-07-25T01:34:56.299Z,59.46
2022-07-25T01:35:56.445Z,58.97
2022-07-25T01:36:56.624Z,70.25
2022-07-25T01:37:56.777Z,67.84
2022-07-25T01:38:57.662Z,65.74
2022-07-25T01:39:57.169Z,58.97
2022-07-25T01:40:58.150Z,71.70
2022-07-25T01:41:57.565Z,57.04
2022-07-25T01:42:57.703Z,54.95
2022-07-25T01:43:58.653Z,56.07
2022-07-25T01:44:58.647Z,67.51
2022-07-25T01:45:58.226Z,61.71
2022-07-25T01:46:58.664Z,58.17
2022-07-25T01:47:59.156Z,73.32
2022-07-25T01:48:58.582Z,70.90
2022-07-25T01:49:58.754Z,55.75
2022-07-25T01:50:58.907Z,61.07
2022-07-25T01:51:59.175Z,72.35
2022-07-25T01:52:59.207Z,57.04
2022-07-25T01:53:59.413Z,58.81
2022-07-25T01:54:59.573Z,52.85
2022-07-25T01:56:00.658Z,54.14
2022-07-25T01:56:59.965Z,57.04
2022-07-25T01:58:00.121Z,75.89
2022-07-25T01:59:01.152Z,62.36
2022-07-25T02:00:00.389Z,73.96
2022-07-25T02:01:01.180Z,67.51
2022-07-25T02:02:01.224Z,56.40
2022-07-25T02:03:00.911Z,72.35
2022-07-25T02:04:01.145Z,71.87
2022-07-25T02:05:01.259Z,57.69
2022-07-25T02:06:01.341Z,56.72
2022-07-25T02:07:01.510Z,57.04
2022-07-25T02:08:01.703Z,57.85
2022-07-25T02:09:02.169Z,66.87
2022-07-25T02:10:02.051Z,75.09
2022-07-25T02:11:02.194Z,73.15
2022-07-25T02:12:02.350Z,60.26
2022-07-25T02:13:03.158Z,73.15
2022-07-25T02:14:03.396Z,72.35
2022-07-25T02:15:02.853Z,57.36
2022-07-25T02:16:02.990Z,61.23
2022-07-25T02:17:03.155Z,61.71
2022-07-25T02:18:03.318Z,56.88
2022-07-25T02:19:03.676Z,57.36
2022-07-25T02:20:03.701Z,70.90
2022-07-25T02:21:03.873Z,70.58
2022-07-25T02:22:04.663Z,71.70
2022-07-25T02:23:04.242Z,58.65
2022-07-25T02:24:04.786Z,68.00
2022-07-25T02:25:04.726Z,70.74
2022-07-25T02:26:04.760Z,72.99
2022-07-25T02:27:05.665Z,55.59
2022-07-25T02:28:05.672Z,70.09
2022-07-25T02:29:05.201Z,78.79
2022-07-25T02:30:06.170Z,61.87
2022-07-25T02:31:06.239Z,59.78
2022-07-25T02:32:05.769Z,61.55
2022-07-25T02:33:06.691Z,75.09
2022-07-25T02:34:06.271Z,71.38
2022-07-25T02:35:13.019Z,73.96
2022-07-25T02:36:07.400Z,70.42
2022-07-25T02:37:06.656Z,72.67
2022-07-25T02:38:06.836Z,77.83
2022-07-25T02:39:07.000Z,58.49
2022-07-25T02:40:07.687Z,74.60
2022-07-25T02:41:07.326Z,70.09
2022-07-25T02:42:07.492Z,72.51
2022-07-25T02:43:07.701Z,68.64
2022-07-25T02:44:08.280Z,75.41
2022-07-25T02:45:08.027Z,75.41
2022-07-25T02:46:08.311Z,72.35
2022-07-25T02:47:08.444Z,74.77
2022-07-25T02:48:09.177Z,58.49
2022-07-25T02:49:08.933Z,72.51
2022-07-25T02:50:09.019Z,69.13
2022-07-25T02:51:10.259Z,69.77
2022-07-25T02:52:09.396Z,71.54
2022-07-25T02:53:10.176Z,75.41
2022-07-25T02:54:10.615Z,73.48
2022-07-25T02:55:10.100Z,77.02
2022-07-25T02:56:10.036Z,73.48
2022-07-25T02:57:11.187Z,75.09
2022-07-25T02:58:10.448Z,78.63
2022-07-25T02:59:10.629Z,69.93
2022-07-25T03:00:11.675Z,72.99
2022-07-25T03:01:11.011Z,76.54
2022-07-25T03:02:11.120Z,71.38
2022-07-25T03:03:12.177Z,73.48
2022-07-25T03:04:11.756Z,73.48
2022-07-25T03:05:11.592Z,71.87
2022-07-25T03:06:12.691Z,71.70
2022-07-25T03:07:11.955Z,70.74
2022-07-25T03:08:12.684Z,73.32
2022-07-25T03:09:12.312Z,74.12
2022-07-25T03:10:13.525Z,75.09
2022-07-25T03:11:13.672Z,70.90
2022-07-25T03:12:12.802Z,73.15
2022-07-25T03:13:12.946Z,78.47
2022-07-25T03:14:13.091Z,80.41
2022-07-25T03:15:14.202Z,75.57
2022-07-25T03:16:13.752Z,74.44
2022-07-25T03:17:13.600Z,75.25
2022-07-25T03:18:13.753Z,73.96
2022-07-25T03:19:13.909Z,74.93
2022-07-25T03:20:14.053Z,73.15
2022-07-25T03:21:14.209Z,74.60
2022-07-25T03:22:14.706Z,75.09
2022-07-25T03:23:14.588Z,76.05
2022-07-25T03:24:15.688Z,70.74
2022-07-25T03:25:15.423Z,73.48
2022-07-25T03:26:16.688Z,76.38
2022-07-25T03:27:15.700Z,73.80
2022-07-25T03:28:15.438Z,76.70
2022-07-25T03:29:15.557Z,74.60
2022-07-25T03:30:15.704Z,76.86
2022-07-25T03:31:16.736Z,75.73
2022-07-25T03:32:16.081Z,71.70
2022-07-25T03:33:16.693Z,78.47
2022-07-25T03:34:16.389Z,74.28
2022-07-25T03:35:16.712Z,73.96
2022-07-25T03:36:16.731Z,76.54
2022-07-25T03:37:16.858Z,76.38
2022-07-25T03:38:16.986Z,77.18
2022-07-25T03:39:17.211Z,76.05
2022-07-25T03:40:17.369Z,76.54
2022-07-25T03:41:17.518Z,76.05
2022-07-25T03:42:17.707Z,75.09
2022-07-25T03:43:17.857Z,75.73
2022-07-25T03:44:18.039Z,76.22
2022-07-25T03:45:18.206Z,75.41
2022-07-25T03:46:18.410Z,75.09
2022-07-25T03:47:20.469Z,80.73
2022-07-25T03:48:18.619Z,71.87
2022-07-25T03:49:19.217Z,75.89
2022-07-25T03:50:19.025Z,74.77
2022-07-25T03:51:20.227Z,76.22
2022-07-25T03:52:19.357Z,74.77
2022-07-25T03:53:19.533Z,77.34
2022-07-25T03:54:19.716Z,76.38
2022-07-25T03:55:19.905Z,77.67
2022-07-25T03:56:20.061Z,74.44
2022-07-25T03:57:20.235Z,76.05
2022-07-25T03:58:20.428Z,76.54
2022-07-25T03:59:21.203Z,74.93
2022-07-25T04:00:20.732Z,74.60
2022-07-25T04:01:20.960Z,73.96
2022-07-25T04:02:21.808Z,75.73
2022-07-25T04:03:21.713Z,72.35
2022-07-25T04:04:22.210Z,73.64
2022-07-25T04:05:22.205Z,73.32
2022-07-25T04:06:21.600Z,75.09
2022-07-25T04:07:21.776Z,76.22
2022-07-25T04:08:21.965Z,76.86
2022-07-25T04:09:22.231Z,73.96
2022-07-25T04:10:22.259Z,74.93
2022-07-25T04:11:22.715Z,74.12
2022-07-25T04:12:23.207Z,76.54
2022-07-25T04:13:22.863Z,75.89
2022-07-25T04:14:23.020Z,75.25
2022-07-25T04:15:23.221Z,74.12
2022-07-25T04:16:23.486Z,74.77
2022-07-25T04:17:23.783Z,77.67
2022-07-25T04:18:24.675Z,72.99
2022-07-25T04:19:25.376Z,81.53
2022-07-25T04:20:24.035Z,87.01
2022-07-25T04:21:24.157Z,78.79
2022-07-25T04:22:25.212Z,76.70
2022-07-25T04:23:25.209Z,74.77
2022-07-25T04:24:24.723Z,76.05
2022-07-25T04:25:24.769Z,72.67
2022-07-25T04:26:24.947Z,75.09
2022-07-25T04:27:25.708Z,76.05
2022-07-25T04:28:26.215Z,73.15
2022-07-25T04:29:26.211Z,75.73
2022-07-25T04:30:26.221Z,73.64
2022-07-25T04:31:25.890Z,73.48
2022-07-25T04:32:26.086Z,75.25
2022-07-25T04:33:26.289Z,76.70
2022-07-25T04:34:26.441Z,78.63
2022-07-25T04:35:26.605Z,75.57
2022-07-25T04:36:26.755Z,72.83
2022-07-25T04:37:26.918Z,75.25
2022-07-25T04:38:27.081Z,78.47
2022-07-25T04:39:27.253Z,75.09
2022-07-25T04:40:28.220Z,76.05
2022-07-25T04:41:28.217Z,73.64
2022-07-25T04:42:28.215Z,75.73
2022-07-25T04:43:29.002Z,75.57
2022-07-25T04:44:28.155Z,75.09
2022-07-25T04:45:29.275Z,75.41
2022-07-25T04:46:28.533Z,74.60
2022-07-25T04:47:28.733Z,74.60
2022-07-25T04:48:28.968Z,76.05
2022-07-25T04:49:29.160Z,75.09
2022-07-25T04:50:29.729Z,75.09
2022-07-25T04:51:29.579Z,75.41
2022-07-25T04:52:29.779Z,71.87
2022-07-25T04:53:29.955Z,76.38
2022-07-25T04:54:30.137Z,73.96
2022-07-25T04:55:30.731Z,76.22
2022-07-25T04:56:30.562Z,86.85
2022-07-25T04:57:30.692Z,77.50
2022-07-25T04:58:31.837Z,75.89
2022-07-25T04:59:31.084Z,75.41
2022-07-25T05:00:31.286Z,74.60
2022-07-25T05:01:31.614Z,75.25
2022-07-25T05:02:31.652Z,76.38
2022-07-25T05:03:31.742Z,73.96
2022-07-25T05:04:31.890Z,76.54
2022-07-25T05:05:32.058Z,76.70
2022-07-25T05:06:32.243Z,74.93
2022-07-25T05:07:32.429Z,72.19
2022-07-25T05:08:32.564Z,75.41
2022-07-25T05:09:33.261Z,74.28
2022-07-25T05:10:33.731Z,77.02
2022-07-25T05:11:33.122Z,74.12
2022-07-25T05:12:33.742Z,76.54
2022-07-25T05:13:34.229Z,81.37
2022-07-25T05:14:33.738Z,72.99
2022-07-25T05:15:33.756Z,75.57
2022-07-25T05:16:34.812Z,75.25
2022-07-25T05:17:34.168Z,75.73
2022-07-25T05:18:34.351Z,74.77
2022-07-25T05:19:34.562Z,74.93
2022-07-25T05:20:34.738Z,73.80
2022-07-25T05:21:34.896Z,78.15
2022-07-25T05:22:35.046Z,76.22
2022-07-25T05:23:35.730Z,75.25
2022-07-25T05:24:35.373Z,74.12
2022-07-25T05:25:35.516Z,74.44
2022-07-25T05:26:35.645Z,75.09
2022-07-25T05:27:35.775Z,74.77
2022-07-25T05:28:35.951Z,78.31
2022-07-25T05:29:36.082Z,72.83
2022-07-25T05:30:39.734Z,74.93
2022-07-25T05:31:37.469Z,72.35
2022-07-25T05:32:36.665Z,76.05
2022-07-25T05:33:36.812Z,74.12
2022-07-25T05:34:37.308Z,75.25
2022-07-25T05:35:37.078Z,77.67
2022-07-25T05:36:37.735Z,77.50
2022-07-25T05:37:38.239Z,75.09
2022-07-25T05:38:37.582Z,76.22
2022-07-25T05:39:38.246Z,72.35
2022-07-25T05:40:37.904Z,75.57
2022-07-25T05:41:38.738Z,73.96
2022-07-25T05:42:38.737Z,74.12
2022-07-25T05:43:38.467Z,77.83
2022-07-25T05:44:38.597Z,75.09
2022-07-25T05:45:38.749Z,77.18
2022-07-25T05:46:38.921Z,71.38
2022-07-25T05:47:39.102Z,72.83
2022-07-25T05:48:39.291Z,73.64
2022-07-25T05:49:40.254Z,76.05
2022-07-25T05:50:39.647Z,72.51
2022-07-25T05:51:39.794Z,72.83
2022-07-25T05:52:40.747Z,73.15
2022-07-25T05:53:40.125Z,75.89
2022-07-25T05:54:40.249Z,78.96
2022-07-25T05:55:41.050Z,79.44
2022-07-25T05:56:40.555Z,76.22
2022-07-25T05:57:40.684Z,72.99
2022-07-25T05:58:40.836Z,76.05
2022-07-25T05:59:40.990Z,72.03
2022-07-25T06:00:41.263Z,73.64
2022-07-25T06:01:42.276Z,75.25
2022-07-25T06:02:41.512Z,77.67
2022-07-25T06:03:41.583Z,75.73
2022-07-25T06:04:41.718Z,75.57
2022-07-25T06:05:42.265Z,74.77
2022-07-25T06:06:42.132Z,74.28
2022-07-25T06:07:42.305Z,74.60
2022-07-25T06:08:43.457Z,73.48
2022-07-25T06:09:42.574Z,71.06
2022-07-25T06:10:42.736Z,73.80
2022-07-25T06:11:54.365Z,74.44
2022-07-25T06:12:44.012Z,70.58
2022-07-25T06:13:43.133Z,73.96
2022-07-25T06:14:44.265Z,74.93
2022-07-25T06:15:43.505Z,77.83
2022-07-25T06:16:43.715Z,74.93
2022-07-25T06:17:43.788Z,89.43
2022-07-25T06:18:44.967Z,72.99
2022-07-25T06:19:44.757Z,70.58
2022-07-25T06:20:44.252Z,76.22
2022-07-25T06:21:44.403Z,71.70
2022-07-25T06:22:45.254Z,75.89
2022-07-25T06:23:45.276Z,82.98
2022-07-25T06:24:45.755Z,73.64
2022-07-25T06:25:50.356Z,75.73
2022-07-25T06:26:46.277Z,74.60
2022-07-25T06:27:46.268Z,75.41
2022-07-25T06:28:46.280Z,74.77
2022-07-25T06:29:46.756Z,77.83
2022-07-25T06:30:46.753Z,75.25
2022-07-25T06:31:46.418Z,79.12
2022-07-25T06:32:47.275Z,78.15
2022-07-25T06:33:46.544Z,74.60
2022-07-25T06:34:46.705Z,76.38
2022-07-25T06:35:47.765Z,72.35
2022-07-25T06:36:46.984Z,77.50
2022-07-25T06:37:47.145Z,74.60
2022-07-25T06:38:48.261Z,74.77
2022-07-25T06:39:47.571Z,75.57
2022-07-25T06:40:47.724Z,73.64
2022-07-25T06:41:48.767Z,73.64
2022-07-25T06:42:48.008Z,75.41
2022-07-25T06:43:48.761Z,71.06
2022-07-25T06:44:49.355Z,75.89
2022-07-25T06:45:49.261Z,74.77
2022-07-25T06:46:48.689Z,77.18
2022-07-25T06:47:49.772Z,72.83
2022-07-25T06:48:48.928Z,74.12
2022-07-25T06:49:49.119Z,74.60
2022-07-25T06:50:49.275Z,73.15
2022-07-25T06:51:50.268Z,71.38
2022-07-25T06:52:50.273Z,88.46
2022-07-25T06:53:49.771Z,106.35
2022-07-25T06:54:49.897Z,73.80
2022-07-25T06:55:50.279Z,77.67
2022-07-25T06:56:50.801Z,73.48
2022-07-25T06:57:51.265Z,85.88
2022-07-25T06:58:50.642Z,75.41
2022-07-25T06:59:51.770Z,75.73
2022-07-25T07:00:51.085Z,73.80
2022-07-25T07:01:51.878Z,74.28
2022-07-25T07:02:53.577Z,73.32
2022-07-25T07:03:51.603Z,72.51
2022-07-25T07:04:51.704Z,73.96
2022-07-25T07:05:51.865Z,78.47
2022-07-25T07:06:52.310Z,78.63
2022-07-25T07:07:52.220Z,75.25
2022-07-25T07:08:52.398Z,74.60
2022-07-25T07:09:53.272Z,74.77
2022-07-25T07:10:53.274Z,74.93
2022-07-25T07:11:52.939Z,77.18
2022-07-25T07:12:53.061Z,74.77
2022-07-25T07:13:53.224Z,74.93
2022-07-25T07:14:53.386Z,70.74
2022-07-25T07:15:53.553Z,73.64
2022-07-25T07:16:53.791Z,82.34
2022-07-25T07:17:53.940Z,75.09
2022-07-25T07:18:54.111Z,73.15
2022-07-25T07:19:54.778Z,105.22
2022-07-25T07:20:54.411Z,72.03
2022-07-25T07:21:54.575Z,71.87
2022-07-25T07:22:54.803Z,77.02
2022-07-25T07:23:55.777Z,79.60
2022-07-25T07:24:55.206Z,73.80
2022-07-25T07:25:55.433Z,78.47
2022-07-25T07:26:55.625Z,74.77
2022-07-25T07:27:55.740Z,71.70
2022-07-25T07:28:56.783Z,72.99
2022-07-25T07:29:56.042Z,73.32
2022-07-25T07:31:15.585Z,74.12
2022-07-25T07:31:58.522Z,73.48
2022-07-25T07:32:56.599Z,70.09
2022-07-25T07:33:56.744Z,70.42
2022-07-25T07:34:56.929Z,72.35
2022-07-25T07:35:57.219Z,72.99
2022-07-25T07:36:58.348Z,74.60
2022-07-25T07:37:57.455Z,73.80
2022-07-25T07:38:58.281Z,71.87
2022-07-25T07:39:57.897Z,74.60
2022-07-25T07:40:58.133Z,74.12
2022-07-25T07:41:58.369Z,72.83
2022-07-25T07:42:58.796Z,74.77
2022-07-25T07:43:58.649Z,70.25
2022-07-25T07:44:58.899Z,72.35
2022-07-25T07:45:59.853Z,77.02
2022-07-25T07:46:59.858Z,75.25
2022-07-25T07:47:59.508Z,73.15
2022-07-25T07:48:59.709Z,73.15
2022-07-25T07:50:00.294Z,80.41
2022-07-25T07:50:59.928Z,72.83
2022-07-25T07:52:00.036Z,72.83
2022-07-25T07:53:00.791Z,74.12
2022-07-25T07:54:00.396Z,70.58
2022-07-25T07:55:00.524Z,75.89
2022-07-25T07:56:01.310Z,72.67
2022-07-25T07:57:01.798Z,72.83
2022-07-25T07:58:01.026Z,73.96
2022-07-25T07:59:01.159Z,73.32
2022-07-25T08:00:02.284Z,73.15
2022-07-25T08:01:01.433Z,73.64
2022-07-25T08:02:01.640Z,74.28
2022-07-25T08:03:01.825Z,74.60
2022-07-25T08:04:02.326Z,74.12
2022-07-25T08:05:02.793Z,73.32
2022-07-25T08:06:02.795Z,74.60
2022-07-25T08:07:03.304Z,73.15
2022-07-25T08:08:02.678Z,73.64
2022-07-25T08:09:03.723Z,73.80
2022-07-25T08:10:02.990Z,70.25
2022-07-25T08:11:03.146Z,78.31
2022-07-25T08:12:03.878Z,78.63
2022-07-25T08:13:03.501Z,76.70
2022-07-25T08:14:04.797Z,74.44
2022-07-25T08:15:04.824Z,75.57
2022-07-25T08:16:04.204Z,76.05
2022-07-25T08:17:04.202Z,78.79
2022-07-25T08:18:04.824Z,71.87
2022-07-25T08:19:05.550Z,75.57
2022-07-25T08:20:27.573Z,79.12
2022-07-25T08:21:07.805Z,74.60
2022-07-25T08:22:05.821Z,80.57
2022-07-25T08:23:06.302Z,76.38
2022-07-25T08:24:06.961Z,72.99
2022-07-25T08:25:06.326Z,73.80
2022-07-25T08:26:06.088Z,76.22
2022-07-25T08:27:06.804Z,75.25
2022-07-25T08:28:07.308Z,74.77
2022-07-25T08:29:18.784Z,71.54
2022-07-25T08:30:08.705Z,71.87
2022-07-25T08:31:06.980Z,78.31
2022-07-25T08:32:07.813Z,72.99
2022-07-25T08:33:07.310Z,74.77
2022-07-25T08:34:07.837Z,73.48
2022-07-25T08:35:11.366Z,73.80
2022-07-25T08:36:08.836Z,75.73
2022-07-25T08:37:07.970Z,74.93
2022-07-25T08:38:08.815Z,72.67
2022-07-25T08:39:08.309Z,76.38
2022-07-25T08:40:08.442Z,75.89
2022-07-25T08:41:08.671Z,73.32
2022-07-25T08:42:11.190Z,76.70
2022-07-25T08:43:09.931Z,76.70
2022-07-25T08:44:09.895Z,74.60
2022-07-25T08:45:10.313Z,73.48
2022-07-25T08:46:09.620Z,73.15
2022-07-25T08:47:09.792Z,75.41
2022-07-25T08:48:09.864Z,73.32
2022-07-25T08:49:10.139Z,74.12
2022-07-25T08:50:10.219Z,71.22
2022-07-25T08:51:10.366Z,72.03
2022-07-25T08:52:10.526Z,73.48
2022-07-25T08:53:32.048Z,78.15
2022-07-25T08:54:12.891Z,71.38
2022-07-25T08:55:11.086Z,74.77
2022-07-25T08:56:16.046Z,75.73
2022-07-25T08:57:13.493Z,71.70
2022-07-25T08:58:12.326Z,75.73
2022-07-25T08:59:11.733Z,75.57
2022-07-25T09:00:12.816Z,72.35
2022-07-25T09:01:13.072Z,72.35
2022-07-25T09:02:12.234Z,74.12
2022-07-25T09:03:12.464Z,76.22
2022-07-25T09:04:12.833Z,74.28
2022-07-25T09:05:12.847Z,73.32
2022-07-25T09:06:13.018Z,72.35
2022-07-25T09:07:13.825Z,83.31
2022-07-25T09:08:13.334Z,73.48
2022-07-25T09:09:13.536Z,73.96
2022-07-25T09:10:13.691Z,75.73
2022-07-25T09:11:13.906Z,71.87
2022-07-25T09:12:14.855Z,73.64
2022-07-25T09:13:14.841Z,71.38
2022-07-25T09:14:15.017Z,72.19
2022-07-25T09:15:14.492Z,75.73
2022-07-25T09:16:15.380Z,73.48
2022-07-25T09:17:22.235Z,70.09
2022-07-25T09:18:16.986Z,73.64
2022-07-25T09:19:15.340Z,74.93
2022-07-25T09:20:18.468Z,72.99
2022-07-25T09:21:17.327Z,79.76
2022-07-25T09:22:16.329Z,73.48
2022-07-25T09:23:16.850Z,74.77
2022-07-25T09:24:16.391Z,73.64
2022-07-25T09:25:16.288Z,78.15
2022-07-25T09:26:16.561Z,76.54
2022-07-25T09:27:16.728Z,71.38
2022-07-25T09:28:17.826Z,71.87
2022-07-25T09:29:17.831Z,71.87
2022-07-25T09:30:17.850Z,71.06
2022-07-25T09:31:17.468Z,70.90
2022-07-25T09:32:18.315Z,80.24
2022-07-25T09:33:18.714Z,76.05
2022-07-25T09:34:21.847Z,73.80
2022-07-25T09:35:19.830Z,71.22
2022-07-25T09:36:19.164Z,73.48
2022-07-25T09:37:18.585Z,72.03
2022-07-25T09:38:18.762Z,72.35
2022-07-25T09:39:19.841Z,73.64
2022-07-25T09:40:19.143Z,71.70
2022-07-25T09:41:19.339Z,75.09
2022-07-25T09:42:19.858Z,71.54
2022-07-25T09:43:19.671Z,73.96
2022-07-25T09:44:19.839Z,74.12
2022-07-25T09:45:19.979Z,72.35
2022-07-25T09:46:20.172Z,71.87
2022-07-25T09:47:20.340Z,73.64
2022-07-25T09:48:20.517Z,72.35
2022-07-25T09:49:20.680Z,70.58
2022-07-25T09:50:20.833Z,73.15
2022-07-25T09:51:20.982Z,72.03
2022-07-25T09:52:21.152Z,72.99
2022-07-25T09:53:21.336Z,75.25
2022-07-25T09:54:21.498Z,74.12
2022-07-25T09:55:21.642Z,74.12
2022-07-25T09:56:21.774Z,71.87
2022-07-25T09:57:22.841Z,74.60
2022-07-25T09:58:22.051Z,70.90
2022-07-25T09:59:22.305Z,73.15
2022-07-25T10:00:22.433Z,73.48
2022-07-25T10:01:22.658Z,75.09
2022-07-25T10:02:22.794Z,72.35
2022-07-25T10:03:22.961Z,71.70
2022-07-25T10:04:23.123Z,76.70
2022-07-25T10:05:23.301Z,74.44
2022-07-25T10:06:23.445Z,75.25
2022-07-25T10:07:25.946Z,72.03
2022-07-25T10:08:24.835Z,73.32
2022-07-25T10:09:23.989Z,73.80
2022-07-25T10:10:24.846Z,72.99
2022-07-25T10:11:24.340Z,71.70
2022-07-25T10:12:25.354Z,74.28
2022-07-25T10:13:25.352Z,69.13
2022-07-25T10:14:24.857Z,74.12
2022-07-25T10:15:24.988Z,72.35
2022-07-25T10:16:25.887Z,71.54
2022-07-25T10:17:25.851Z,76.05
2022-07-25T10:18:25.470Z,73.32
2022-07-25T10:19:25.858Z,72.03
2022-07-25T10:20:25.864Z,73.64
2022-07-25T10:21:27.629Z,83.14
2022-07-25T10:22:53.761Z,73.80
2022-07-25T10:23:29.356Z,70.90
2022-07-25T10:24:26.690Z,74.28
2022-07-25T10:25:26.849Z,71.38
2022-07-25T10:26:27.011Z,69.93
2022-07-25T10:27:27.198Z,72.83
2022-07-25T10:28:27.388Z,74.12
2022-07-25T10:29:27.541Z,75.41
2022-07-25T10:30:27.985Z,77.50
2022-07-25T10:31:28.472Z,74.60
2022-07-25T10:32:28.129Z,71.70
2022-07-25T10:33:28.256Z,74.93
2022-07-25T10:34:29.357Z,69.45
2022-07-25T10:35:28.612Z,70.42
2022-07-25T10:36:28.797Z,77.83
2022-07-25T10:37:29.370Z,71.54
2022-07-25T10:38:29.862Z,74.44
2022-07-25T10:39:29.357Z,72.19
2022-07-25T10:40:29.871Z,71.22
2022-07-25T10:41:29.625Z,73.96
2022-07-25T10:42:30.371Z,71.70
2022-07-25T10:43:29.899Z,72.99
2022-07-25T10:44:30.038Z,73.32
2022-07-25T10:45:30.374Z,74.12
2022-07-25T10:46:31.393Z,72.19
2022-07-25T10:47:30.892Z,71.70
2022-07-25T10:48:30.839Z,73.64
2022-07-25T10:49:32.480Z,76.05
2022-07-25T10:50:54.358Z,76.70
2022-07-25T10:51:35.928Z,73.15
2022-07-25T10:52:32.439Z,74.12
2022-07-25T10:53:31.558Z,69.77
2022-07-25T10:54:31.677Z,70.25
2022-07-25T10:55:32.863Z,73.64
2022-07-25T10:56:32.885Z,82.50
2022-07-25T10:57:32.457Z,72.35
2022-07-25T10:58:32.371Z,72.03
2022-07-25T10:59:32.509Z,72.03
2022-07-25T11:00:32.673Z,73.64
2022-07-25T11:01:32.873Z,73.15
2022-07-25T11:02:33.120Z,71.87
2022-07-25T11:03:33.180Z,70.09
2022-07-25T11:04:33.353Z,73.64
2022-07-25T11:05:34.372Z,73.48
2022-07-25T11:06:33.739Z,72.99
2022-07-25T11:07:34.373Z,77.67
2022-07-25T11:08:33.998Z,72.03
2022-07-25T11:09:34.874Z,75.73
2022-07-25T11:10:34.349Z,76.70
2022-07-25T11:11:34.496Z,74.60
2022-07-25T11:12:34.645Z,73.15
2022-07-25T11:13:34.788Z,78.15
2022-07-25T11:14:35.885Z,72.19
2022-07-25T11:15:35.121Z,76.05
2022-07-25T11:16:35.463Z,73.15
2022-07-25T11:17:35.419Z,73.64
2022-07-25T11:18:35.584Z,73.32
2022-07-25T11:19:35.892Z,72.35
2022-07-25T11:20:35.923Z,73.48
2022-07-25T11:21:36.130Z,73.15
2022-07-25T11:22:36.291Z,72.19
2022-07-25T11:23:36.485Z,72.51
2022-07-25T11:24:36.668Z,74.44
2022-07-25T11:25:36.891Z,73.96
2022-07-25T11:26:38.035Z,73.80
2022-07-25T11:27:37.172Z,73.96
2022-07-25T11:28:37.301Z,71.70
2022-07-25T11:29:37.468Z,74.12
2022-07-25T11:30:37.640Z,73.48
2022-07-25T11:31:37.912Z,72.03
2022-07-25T11:32:38.007Z,74.44
2022-07-25T11:33:39.128Z,74.28
2022-07-25T11:34:38.309Z,74.60
2022-07-25T11:35:38.472Z,72.03
2022-07-25T11:36:38.632Z,76.22
2022-07-25T11:37:39.399Z,72.83
2022-07-25T11:38:39.886Z,70.74
2022-07-25T11:39:39.272Z,76.22
2022-07-25T11:40:39.893Z,75.09
2022-07-25T11:41:40.396Z,73.96
2022-07-25T11:42:39.902Z,71.54
2022-07-25T11:43:40.892Z,73.15
2022-07-25T11:44:42.983Z,71.54
2022-07-25T11:45:42.460Z,73.64
2022-07-25T11:46:40.906Z,72.67
2022-07-25T11:47:41.406Z,73.15
2022-07-25T11:48:42.032Z,72.67
2022-07-25T11:49:41.063Z,74.77
2022-07-25T11:50:41.286Z,72.35
2022-07-25T11:51:41.479Z,72.67
2022-07-25T11:52:41.698Z,79.44
2022-07-25T11:53:41.880Z,73.32
2022-07-25T11:54:42.052Z,71.38
2022-07-25T11:55:42.208Z,75.73
2022-07-25T11:56:43.790Z,72.03
2022-07-25T11:57:43.520Z,73.96
2022-07-25T11:58:42.913Z,72.35
2022-07-25T11:59:43.400Z,75.57
2022-07-25T12:00:42.937Z,80.08
2022-07-25T12:01:43.896Z,77.02
2022-07-25T12:02:43.997Z,78.63
2022-07-25T12:03:43.541Z,72.51
2022-07-25T12:04:44.400Z,71.87
2022-07-25T12:05:44.434Z,75.25
2022-07-25T12:06:44.116Z,75.73
2022-07-25T12:07:44.237Z,75.41
2022-07-25T12:08:44.411Z,71.87
2022-07-25T12:09:45.551Z,75.41
2022-07-25T12:10:45.403Z,73.64
2022-07-25T12:11:44.870Z,77.83
2022-07-25T12:12:45.138Z,79.60
2022-07-25T12:13:45.289Z,81.37
2022-07-25T12:14:46.397Z,72.35
2022-07-25T12:15:45.628Z,73.32
2022-07-25T12:16:45.874Z,69.93
2022-07-25T12:17:45.937Z,75.41
2022-07-25T12:18:46.437Z,71.06
2022-07-25T12:19:46.937Z,75.57
2022-07-25T12:20:46.398Z,73.32
2022-07-25T12:21:46.619Z,73.48
2022-07-25T12:22:46.755Z,82.98
2022-07-25T12:23:46.911Z,72.19
2022-07-25T12:24:47.040Z,72.99
2022-07-25T12:25:47.197Z,74.28
2022-07-25T12:26:47.318Z,73.64
2022-07-25T12:27:49.419Z,71.22
2022-07-25T12:28:48.407Z,71.70
2022-07-25T12:29:48.401Z,72.83
2022-07-25T12:30:50.561Z,72.51
2022-07-25T12:31:49.147Z,74.77
2022-07-25T12:32:48.294Z,73.48
2022-07-25T12:33:49.405Z,75.57
2022-07-25T12:34:48.645Z,70.25
2022-07-25T12:35:48.781Z,78.79
2022-07-25T12:36:48.934Z,71.87
2022-07-25T12:37:49.429Z,73.96
2022-07-25T12:38:49.294Z,76.22
2022-07-25T12:39:49.461Z,72.99
2022-07-25T12:40:49.672Z,77.18
2022-07-25T12:41:49.819Z,74.60
2022-07-25T12:42:50.910Z,71.38
2022-07-25T12:43:50.911Z,72.35
2022-07-25T12:44:50.275Z,77.34
2022-07-25T12:45:50.428Z,73.64
2022-07-25T12:46:51.413Z,75.25
2022-07-25T12:47:50.771Z,75.09
2022-07-25T12:48:51.961Z,73.48
2022-07-25T12:49:51.118Z,82.02
2022-07-25T12:50:51.256Z,73.15
2022-07-25T12:51:56.075Z,76.70
2022-07-25T12:52:53.617Z,72.67
2022-07-25T12:53:51.828Z,76.05
2022-07-25T12:54:51.996Z,77.02